sensor_id;sensor_type;location;lat;lon;timestamp;P1;durP1;ratioP1;P2;durP2;ratioP2
21416;SDS011;10869;52.238;10.716;2022-11-20T05:08:28;21.90;;;10.83;;
21416;SDS011;10869;52.238;10.716;2022-11-20T05:16:56;17.33;;;10.43;;
21416;SDS011;10869;52.238;10.716;2022-11-20T05:19:22;22.53;;;9.73;;
21416;SDS011;10869;52.238;10.716;2022-11-20T05:21:48;17.30;;;9.47;;
21416;SDS011;10869;52.238;10.716;2022-11-20T05:24:13;21.13;;;10.63;;
21416;SDS011;10869;52.238;10.716;2022-11-20T05:26:39;19.43;;;10.27;;
21416;SDS011;10869;52.238;10.716;2022-11-20T05:29:05;18.97;;;10.47;;
21416;SDS011;10869;52.238;10.716;2022-11-20T05:31:31;19.33;;;8.90;;
21416;SDS011;10869;52.238;10.716;2022-11-20T05:33:57;15.53;;;9.57;;
21416;SDS011;10869;52.238;10.716;2022-11-20T05:36:22;17.27;;;9.30;;
21416;SDS011;10869;52.238;10.716;2022-11-20T05:38:48;17.33;;;9.50;;
21416;SDS011;10869;52.238;10.716;2022-11-20T05:41:15;16.10;;;9.60;;
21416;SDS011;10869;52.238;10.716;2022-11-20T05:43:44;17.97;;;9.30;;
21416;SDS011;10869;52.238;10.716;2022-11-20T05:46:12;17.50;;;9.43;;
21416;SDS011;10869;52.238;10.716;2022-11-20T05:48:39;17.77;;;10.23;;
21416;SDS011;10869;52.238;10.716;2022-11-20T05:51:07;16.57;;;9.80;;
21416;SDS011;10869;52.238;10.716;2022-11-20T05:53:35;18.83;;;9.77;;
21416;SDS011;10869;52.238;10.716;2022-11-20T05:56:03;16.33;;;9.57;;
21416;SDS011;10869;52.238;10.716;2022-11-20T05:58:29;16.73;;;9.47;;
21416;SDS011;10869;52.238;10.716;2022-11-20T06:01:03;20.00;;;9.80;;
21416;SDS011;10869;52.238;10.716;2022-11-20T06:03:38;19.27;;;9.23;;
21416;SDS011;10869;52.238;10.716;2022-11-20T06:06:05;17.70;;;9.40;;
21416;SDS011;10869;52.238;10.716;2022-11-20T06:08:32;15.90;;;9.10;;
21416;SDS011;10869;52.238;10.716;2022-11-20T06:10:58;19.13;;;8.87;;
21416;SDS011;10869;52.238;10.716;2022-11-20T06:13:27;15.70;;;8.20;;
21416;SDS011;10869;52.238;10.716;2022-11-20T06:15:53;14.20;;;8.07;;
21416;SDS011;10869;52.238;10.716;2022-11-20T06:18:20;16.10;;;9.47;;
21416;SDS011;10869;52.238;10.716;2022-11-20T06:20:46;17.13;;;9.33;;
21416;SDS011;10869;52.238;10.716;2022-11-20T06:23:12;15.77;;;8.70;;
21416;SDS011;10869;52.238;10.716;2022-11-20T06:25:39;18.63;;;9.53;;
21416;SDS011;10869;52.238;10.716;2022-11-20T06:28:05;18.67;;;10.83;;
21416;SDS011;10869;52.238;10.716;2022-11-20T06:30:31;17.40;;;10.50;;
21416;SDS011;10869;52.238;10.716;2022-11-20T06:32:57;17.57;;;11.07;;
21416;SDS011;10869;52.238;10.716;2022-11-20T06:35:23;19.93;;;11.37;;
21416;SDS011;10869;52.238;10.716;2022-11-20T06:37:49;14.80;;;9.77;;
21416;SDS011;10869;52.238;10.716;2022-11-20T06:40:15;21.93;;;11.43;;
21416;SDS011;10869;52.238;10.716;2022-11-20T06:42:41;20.37;;;10.67;;
21416;SDS011;10869;52.238;10.716;2022-11-20T06:45:07;15.57;;;9.27;;
21416;SDS011;10869;52.238;10.716;2022-11-20T06:47:33;17.77;;;9.77;;
21416;SDS011;10869;52.238;10.716;2022-11-20T06:53:21;18.07;;;10.37;;
21416;SDS011;10869;52.238;10.716;2022-11-20T06:55:51;15.90;;;9.50;;
21416;SDS011;10869;52.238;10.716;2022-11-20T06:58:20;16.87;;;10.57;;
21416;SDS011;10869;52.238;10.716;2022-11-20T07:00:46;16.60;;;9.70;;
21416;SDS011;10869;52.238;10.716;2022-11-20T07:03:12;16.23;;;9.80;;
21416;SDS011;10869;52.238;10.716;2022-11-20T07:05:38;18.67;;;10.70;;
21416;SDS011;10869;52.238;10.716;2022-11-20T07:08:05;18.03;;;10.33;;
21416;SDS011;10869;52.238;10.716;2022-11-20T07:13:52;16.23;;;9.67;;
21416;SDS011;10869;52.238;10.716;2022-11-20T07:19:40;18.90;;;10.53;;
21416;SDS011;10869;52.238;10.716;2022-11-20T07:35:51;17.07;;;9.97;;
21416;SDS011;10869;52.238;10.716;2022-11-20T08:15:08;18.27;;;10.73;;
21416;SDS011;10869;52.238;10.716;2022-11-20T08:17:34;17.87;;;11.00;;
21416;SDS011;10869;52.238;10.716;2022-11-20T08:23:22;18.53;;;11.80;;
21416;SDS011;10869;52.238;10.716;2022-11-20T08:25:49;23.83;;;11.83;;
21416;SDS011;10869;52.238;10.716;2022-11-20T08:28:15;29.60;;;12.00;;
21416;SDS011;10869;52.238;10.716;2022-11-20T08:30:41;20.80;;;10.77;;
21416;SDS011;10869;52.238;10.716;2022-11-20T08:36:32;15.70;;;8.80;;
21416;SDS011;10869;52.238;10.716;2022-11-20T08:42:21;16.43;;;9.53;;
21416;SDS011;10869;52.238;10.716;2022-11-20T08:44:47;21.13;;;11.23;;
21416;SDS011;10869;52.238;10.716;2022-11-20T08:47:12;17.53;;;10.67;;
21416;SDS011;10869;52.238;10.716;2022-11-20T08:49:38;25.70;;;13.37;;
21416;SDS011;10869;52.238;10.716;2022-11-20T08:52:04;23.77;;;12.40;;
21416;SDS011;10869;52.238;10.716;2022-11-20T08:54:30;25.80;;;13.30;;
21416;SDS011;10869;52.238;10.716;2022-11-20T08:56:56;21.03;;;10.80;;
21416;SDS011;10869;52.238;10.716;2022-11-20T08:59:22;17.53;;;10.30;;
21416;SDS011;10869;52.238;10.716;2022-11-20T09:01:50;16.13;;;9.80;;
21416;SDS011;10869;52.238;10.716;2022-11-20T09:04:16;17.77;;;11.17;;
21416;SDS011;10869;52.238;10.716;2022-11-20T09:06:42;15.73;;;9.87;;
21416;SDS011;10869;52.238;10.716;2022-11-20T09:09:08;18.03;;;11.67;;
21416;SDS011;10869;52.238;10.716;2022-11-20T09:11:34;18.07;;;11.07;;
21416;SDS011;10869;52.238;10.716;2022-11-20T09:14:01;16.93;;;10.70;;
21416;SDS011;10869;52.238;10.716;2022-11-20T09:16:27;19.43;;;10.03;;
21416;SDS011;10869;52.238;10.716;2022-11-20T09:18:53;18.27;;;11.73;;
21416;SDS011;10869;52.238;10.716;2022-11-20T09:21:19;18.87;;;11.80;;
21416;SDS011;10869;52.238;10.716;2022-11-20T09:27:07;17.97;;;11.07;;
21416;SDS011;10869;52.238;10.716;2022-11-20T09:29:32;22.43;;;12.20;;
21416;SDS011;10869;52.238;10.716;2022-11-20T09:31:58;21.53;;;12.27;;
21416;SDS011;10869;52.238;10.716;2022-11-20T09:34:24;19.03;;;11.77;;
21416;SDS011;10869;52.238;10.716;2022-11-20T09:36:50;19.47;;;11.43;;
21416;SDS011;10869;52.238;10.716;2022-11-20T09:56:53;17.60;;;10.47;;
21416;SDS011;10869;52.238;10.716;2022-11-20T09:59:36;15.70;;;8.97;;
21416;SDS011;10869;52.238;10.716;2022-11-20T10:05:31;16.97;;;9.20;;
21416;SDS011;10869;52.238;10.716;2022-11-20T10:20:00;30.80;;;18.03;;
21416;SDS011;10869;52.238;10.716;2022-11-20T10:26:04;14.40;;;9.70;;
21416;SDS011;10869;52.238;10.716;2022-11-20T10:31:39;31.73;;;14.60;;
21416;SDS011;10869;52.238;10.716;2022-11-20T15:28:02;22.47;;;12.93;;
21416;SDS011;10869;52.238;10.716;2022-11-20T15:30:32;20.30;;;12.83;;
21416;SDS011;10869;52.238;10.716;2022-11-20T15:32:58;23.43;;;13.17;;
21416;SDS011;10869;52.238;10.716;2022-11-20T15:35:24;20.63;;;13.93;;
21416;SDS011;10869;52.238;10.716;2022-11-20T15:37:53;24.93;;;13.17;;
21416;SDS011;10869;52.238;10.716;2022-11-20T15:40:19;20.87;;;14.40;;
21416;SDS011;10869;52.238;10.716;2022-11-20T15:42:44;25.97;;;16.23;;
21416;SDS011;10869;52.238;10.716;2022-11-20T15:45:28;34.90;;;19.47;;
21416;SDS011;10869;52.238;10.716;2022-11-20T15:51:33;33.97;;;19.83;;
21416;SDS011;10869;52.238;10.716;2022-11-20T15:54:17;30.73;;;18.83;;
21416;SDS011;10869;52.238;10.716;2022-11-20T15:56:45;29.40;;;17.03;;
21416;SDS011;10869;52.238;10.716;2022-11-20T15:59:12;25.33;;;14.63;;
21416;SDS011;10869;52.238;10.716;2022-11-20T16:01:41;22.37;;;13.90;;
21416;SDS011;10869;52.238;10.716;2022-11-20T16:07:29;22.63;;;13.73;;
21416;SDS011;10869;52.238;10.716;2022-11-20T16:09:54;23.33;;;14.23;;
21416;SDS011;10869;52.238;10.716;2022-11-20T16:12:21;23.73;;;14.90;;
21416;SDS011;10869;52.238;10.716;2022-11-20T16:15:05;22.77;;;14.13;;
21416;SDS011;10869;52.238;10.716;2022-11-20T16:18:01;25.83;;;15.13;;
21416;SDS011;10869;52.238;10.716;2022-11-20T16:20:32;23.83;;;14.10;;
21416;SDS011;10869;52.238;10.716;2022-11-20T16:23:04;26.03;;;15.70;;
21416;SDS011;10869;52.238;10.716;2022-11-20T16:28:06;24.20;;;14.90;;
21416;SDS011;10869;52.238;10.716;2022-11-20T16:30:38;22.53;;;14.67;;
21416;SDS011;10869;52.238;10.716;2022-11-20T16:33:15;21.73;;;14.30;;
21416;SDS011;10869;52.238;10.716;2022-11-20T16:35:45;23.40;;;14.87;;
21416;SDS011;10869;52.238;10.716;2022-11-20T16:41:36;27.17;;;16.37;;
21416;SDS011;10869;52.238;10.716;2022-11-20T16:44:34;26.07;;;16.17;;
21416;SDS011;10869;52.238;10.716;2022-11-20T16:49:42;34.90;;;19.00;;
21416;SDS011;10869;52.238;10.716;2022-11-20T16:52:11;28.73;;;16.80;;
21416;SDS011;10869;52.238;10.716;2022-11-20T16:54:40;27.47;;;17.13;;
21416;SDS011;10869;52.238;10.716;2022-11-20T16:57:09;26.63;;;15.80;;
21416;SDS011;10869;52.238;10.716;2022-11-20T16:59:37;63.33;;;31.23;;
21416;SDS011;10869;52.238;10.716;2022-11-20T17:02:03;56.90;;;31.37;;
21416;SDS011;10869;52.238;10.716;2022-11-20T17:04:29;31.80;;;19.00;;
21416;SDS011;10869;52.238;10.716;2022-11-20T17:06:56;24.50;;;15.97;;
21416;SDS011;10869;52.238;10.716;2022-11-20T17:09:22;29.47;;;18.93;;
21416;SDS011;10869;52.238;10.716;2022-11-20T17:15:10;21.83;;;14.53;;
21416;SDS011;10869;52.238;10.716;2022-11-20T17:20:58;29.03;;;15.97;;
21416;SDS011;10869;52.238;10.716;2022-11-20T17:33:50;24.67;;;15.73;;
21416;SDS011;10869;52.238;10.716;2022-11-20T17:36:16;32.87;;;18.90;;
21416;SDS011;10869;52.238;10.716;2022-11-20T17:38:46;36.70;;;22.87;;
21416;SDS011;10869;52.238;10.716;2022-11-20T17:41:13;31.20;;;20.10;;
21416;SDS011;10869;52.238;10.716;2022-11-20T17:43:44;30.60;;;19.73;;
21416;SDS011;10869;52.238;10.716;2022-11-20T17:46:31;28.97;;;18.63;;
21416;SDS011;10869;52.238;10.716;2022-11-20T17:49:00;23.63;;;16.13;;
21416;SDS011;10869;52.238;10.716;2022-11-20T17:51:35;26.37;;;16.57;;
21416;SDS011;10869;52.238;10.716;2022-11-20T17:57:44;27.73;;;16.77;;
21416;SDS011;10869;52.238;10.716;2022-11-20T18:03:58;23.77;;;14.70;;
21416;SDS011;10869;52.238;10.716;2022-11-20T18:09:49;25.70;;;15.00;;
21416;SDS011;10869;52.238;10.716;2022-11-20T18:12:15;24.77;;;14.17;;
21416;SDS011;10869;52.238;10.716;2022-11-20T18:18:03;24.57;;;12.20;;
21416;SDS011;10869;52.238;10.716;2022-11-20T18:20:29;22.77;;;12.83;;
21416;SDS011;10869;52.238;10.716;2022-11-20T18:22:55;19.27;;;12.10;;
21416;SDS011;10869;52.238;10.716;2022-11-20T18:28:44;21.97;;;13.23;;
21416;SDS011;10869;52.238;10.716;2022-11-20T18:36:27;21.50;;;13.23;;
21416;SDS011;10869;52.238;10.716;2022-11-20T18:38:57;19.73;;;12.50;;
21416;SDS011;10869;52.238;10.716;2022-11-20T18:44:57;19.53;;;11.70;;
21416;SDS011;10869;52.238;10.716;2022-11-20T18:47:33;20.37;;;11.73;;
21416;SDS011;10869;52.238;10.716;2022-11-20T18:50:02;23.57;;;11.80;;
21416;SDS011;10869;52.238;10.716;2022-11-20T18:52:30;19.07;;;11.67;;
21416;SDS011;10869;52.238;10.716;2022-11-20T18:54:58;19.43;;;11.60;;
21416;SDS011;10869;52.238;10.716;2022-11-20T18:57:26;17.40;;;10.77;;
21416;SDS011;10869;52.238;10.716;2022-11-20T19:03:18;16.63;;;9.13;;
21416;SDS011;10869;52.238;10.716;2022-11-20T19:05:46;16.70;;;9.13;;
21416;SDS011;10869;52.238;10.716;2022-11-20T19:08:18;16.43;;;10.03;;
21416;SDS011;10869;52.238;10.716;2022-11-20T19:10:44;23.33;;;13.03;;
21416;SDS011;10869;52.238;10.716;2022-11-20T19:16:32;17.13;;;9.53;;
21416;SDS011;10869;52.238;10.716;2022-11-20T19:18:59;15.63;;;8.87;;
21416;SDS011;10869;52.238;10.716;2022-11-20T19:21:29;17.37;;;9.43;;
21416;SDS011;10869;52.238;10.716;2022-11-20T19:23:56;16.13;;;8.27;;
21416;SDS011;10869;52.238;10.716;2022-11-20T19:26:28;13.17;;;7.43;;
21416;SDS011;10869;52.238;10.716;2022-11-20T19:28:54;13.20;;;7.90;;
21416;SDS011;10869;52.238;10.716;2022-11-20T19:34:42;15.47;;;8.73;;
21416;SDS011;10869;52.238;10.716;2022-11-20T19:37:11;13.60;;;8.67;;
21416;SDS011;10869;52.238;10.716;2022-11-20T19:39:37;14.13;;;8.07;;
21416;SDS011;10869;52.238;10.716;2022-11-20T19:45:25;14.77;;;8.07;;
21416;SDS011;10869;52.238;10.716;2022-11-20T19:47:54;16.33;;;8.47;;
21416;SDS011;10869;52.238;10.716;2022-11-20T19:50:34;14.47;;;9.07;;
21416;SDS011;10869;52.238;10.716;2022-11-20T19:53:14;13.70;;;8.57;;
21416;SDS011;10869;52.238;10.716;2022-11-20T19:55:58;14.67;;;8.07;;
21416;SDS011;10869;52.238;10.716;2022-11-20T19:58:29;14.70;;;8.93;;
21416;SDS011;10869;52.238;10.716;2022-11-20T20:06:25;14.73;;;9.23;;
21416;SDS011;10869;52.238;10.716;2022-11-20T20:09:07;14.53;;;8.03;;
21416;SDS011;10869;52.238;10.716;2022-11-20T20:11:36;15.23;;;9.23;;
21416;SDS011;10869;52.238;10.716;2022-11-20T20:17:28;12.17;;;7.00;;
21416;SDS011;10869;52.238;10.716;2022-11-20T20:23:16;10.93;;;6.30;;
21416;SDS011;10869;52.238;10.716;2022-11-20T20:25:46;10.63;;;5.53;;
21416;SDS011;10869;52.238;10.716;2022-11-20T20:28:16;10.47;;;5.63;;
21416;SDS011;10869;52.238;10.716;2022-11-20T20:30:45;11.03;;;5.67;;
21416;SDS011;10869;52.238;10.716;2022-11-20T20:33:21;11.40;;;5.90;;
21416;SDS011;10869;52.238;10.716;2022-11-20T20:35:51;13.33;;;6.40;;
21416;SDS011;10869;52.238;10.716;2022-11-20T20:38:17;9.37;;;5.43;;
21416;SDS011;10869;52.238;10.716;2022-11-20T20:40:46;10.67;;;5.17;;
21416;SDS011;10869;52.238;10.716;2022-11-20T20:46:39;11.27;;;5.23;;
21416;SDS011;10869;52.238;10.716;2022-11-20T20:49:12;10.50;;;5.23;;
21416;SDS011;10869;52.238;10.716;2022-11-20T20:51:42;9.57;;;4.80;;
21416;SDS011;10869;52.238;10.716;2022-11-20T20:54:15;11.03;;;5.40;;
21416;SDS011;10869;52.238;10.716;2022-11-20T20:56:55;9.80;;;4.97;;
21416;SDS011;10869;52.238;10.716;2022-11-20T21:02:23;13.43;;;8.00;;
21416;SDS011;10869;52.238;10.716;2022-11-20T21:04:49;10.27;;;6.13;;
21416;SDS011;10869;52.238;10.716;2022-11-20T21:07:17;10.33;;;5.83;;
21416;SDS011;10869;52.238;10.716;2022-11-20T21:09:43;9.10;;;4.47;;
21416;SDS011;10869;52.238;10.716;2022-11-20T21:15:31;8.30;;;3.63;;
21416;SDS011;10869;52.238;10.716;2022-11-20T21:17:57;10.30;;;3.77;;
21416;SDS011;10869;52.238;10.716;2022-11-20T21:20:23;6.90;;;3.50;;
21416;SDS011;10869;52.238;10.716;2022-11-20T21:28:18;7.40;;;3.50;;
21416;SDS011;10869;52.238;10.716;2022-11-20T21:30:44;7.73;;;3.83;;
21416;SDS011;10869;52.238;10.716;2022-11-20T21:36:32;6.57;;;3.17;;
21416;SDS011;10869;52.238;10.716;2022-11-20T21:38:57;7.40;;;3.67;;
21416;SDS011;10869;52.238;10.716;2022-11-20T21:41:24;6.23;;;3.47;;
21416;SDS011;10869;52.238;10.716;2022-11-20T21:47:14;6.40;;;3.20;;
21416;SDS011;10869;52.238;10.716;2022-11-20T21:49:39;8.33;;;4.27;;
21416;SDS011;10869;52.238;10.716;2022-11-20T21:52:05;10.83;;;5.03;;
21416;SDS011;10869;52.238;10.716;2022-11-20T21:54:31;10.40;;;6.00;;
21416;SDS011;10869;52.238;10.716;2022-11-20T21:56:59;13.53;;;8.07;;
21416;SDS011;10869;52.238;10.716;2022-11-20T21:59:25;13.77;;;7.97;;
21416;SDS011;10869;52.238;10.716;2022-11-20T22:01:51;12.87;;;7.63;;
21416;SDS011;10869;52.238;10.716;2022-11-20T22:04:17;11.23;;;6.47;;
21416;SDS011;10869;52.238;10.716;2022-11-20T22:06:42;10.70;;;5.20;;
21416;SDS011;10869;52.238;10.716;2022-11-20T22:09:09;9.17;;;5.40;;
21416;SDS011;10869;52.238;10.716;2022-11-20T22:11:35;9.90;;;4.73;;
21416;SDS011;10869;52.238;10.716;2022-11-20T22:14:01;9.73;;;5.20;;
21416;SDS011;10869;52.238;10.716;2022-11-20T22:16:45;8.97;;;4.60;;
21416;SDS011;10869;52.238;10.716;2022-11-20T22:19:14;8.90;;;4.70;;
21416;SDS011;10869;52.238;10.716;2022-11-20T22:21:40;7.33;;;3.50;;
21416;SDS011;10869;52.238;10.716;2022-11-20T22:24:06;6.70;;;3.70;;
21416;SDS011;10869;52.238;10.716;2022-11-20T22:26:36;5.77;;;3.10;;
21416;SDS011;10869;52.238;10.716;2022-11-20T22:29:02;7.37;;;3.40;;
21416;SDS011;10869;52.238;10.716;2022-11-20T22:31:28;6.47;;;3.20;;
21416;SDS011;10869;52.238;10.716;2022-11-20T22:33:55;6.47;;;3.60;;
21416;SDS011;10869;52.238;10.716;2022-11-20T22:36:25;7.10;;;3.37;;
21416;SDS011;10869;52.238;10.716;2022-11-20T22:38:53;7.00;;;3.47;;
21416;SDS011;10869;52.238;10.716;2022-11-20T22:41:25;7.90;;;3.60;;
21416;SDS011;10869;52.238;10.716;2022-11-20T22:43:56;7.20;;;3.27;;
21416;SDS011;10869;52.238;10.716;2022-11-20T22:46:24;9.63;;;3.43;;
21416;SDS011;10869;52.238;10.716;2022-11-20T22:51:19;5.70;;;2.77;;
21416;SDS011;10869;52.238;10.716;2022-11-20T22:53:47;6.33;;;2.80;;
21416;SDS011;10869;52.238;10.716;2022-11-20T22:56:14;6.53;;;3.27;;
21416;SDS011;10869;52.238;10.716;2022-11-20T22:58:41;6.77;;;2.97;;
21416;SDS011;10869;52.238;10.716;2022-11-20T23:01:12;6.63;;;2.97;;
21416;SDS011;10869;52.238;10.716;2022-11-20T23:03:42;8.50;;;3.30;;
21416;SDS011;10869;52.238;10.716;2022-11-20T23:06:09;5.87;;;2.87;;
21416;SDS011;10869;52.238;10.716;2022-11-20T23:08:37;6.27;;;3.00;;
21416;SDS011;10869;52.238;10.716;2022-11-20T23:11:06;6.70;;;3.53;;
21416;SDS011;10869;52.238;10.716;2022-11-20T23:13:36;9.07;;;3.67;;
21416;SDS011;10869;52.238;10.716;2022-11-20T23:16:06;7.33;;;3.23;;
21416;SDS011;10869;52.238;10.716;2022-11-20T23:18:39;8.40;;;3.73;;
21416;SDS011;10869;52.238;10.716;2022-11-20T23:21:06;6.90;;;3.53;;
21416;SDS011;10869;52.238;10.716;2022-11-20T23:23:36;7.57;;;3.90;;
21416;SDS011;10869;52.238;10.716;2022-11-20T23:26:02;7.70;;;3.60;;
21416;SDS011;10869;52.238;10.716;2022-11-20T23:28:30;9.20;;;4.03;;
21416;SDS011;10869;52.238;10.716;2022-11-20T23:30:56;8.30;;;3.70;;
21416;SDS011;10869;52.238;10.716;2022-11-20T23:33:22;8.40;;;4.13;;
21416;SDS011;10869;52.238;10.716;2022-11-20T23:35:48;9.77;;;4.90;;
21416;SDS011;10869;52.238;10.716;2022-11-20T23:38:14;8.57;;;4.33;;
21416;SDS011;10869;52.238;10.716;2022-11-20T23:40:40;11.30;;;5.37;;
21416;SDS011;10869;52.238;10.716;2022-11-20T23:43:06;9.53;;;5.20;;
21416;SDS011;10869;52.238;10.716;2022-11-20T23:45:44;9.93;;;5.17;;
21416;SDS011;10869;52.238;10.716;2022-11-20T23:48:12;8.20;;;4.23;;
21416;SDS011;10869;52.238;10.716;2022-11-20T23:50:39;7.07;;;3.73;;
21416;SDS011;10869;52.238;10.716;2022-11-20T23:53:06;7.03;;;3.83;;
21416;SDS011;10869;52.238;10.716;2022-11-20T23:55:33;6.87;;;3.83;;
21416;SDS011;10869;52.238;10.716;2022-11-20T23:57:59;19.73;;;11.07;;
